createdAt,value
2022-10-05T00:02:58.546Z,8.50
2022-10-05T00:06:01.269Z,9.03
2022-10-05T00:09:15.827Z,8.43
2022-10-05T00:12:20.493Z,7.88
2022-10-05T00:15:23.638Z,7.88
2022-10-05T00:18:27.144Z,7.30
2022-10-05T00:21:30.053Z,6.90
2022-10-05T00:24:32.769Z,6.68
2022-10-05T00:27:38.106Z,6.88
2022-10-05T00:30:41.115Z,7.07
2022-10-05T00:33:43.892Z,7.28
2022-10-05T00:36:47.042Z,6.80
2022-10-05T00:39:50.005Z,7.40
2022-10-05T00:43:23.586Z,6.97
2022-10-05T00:46:43.982Z,6.78
2022-10-05T00:50:05.480Z,6.38
2022-10-05T00:53:30.353Z,6.60
2022-10-05T00:56:51.610Z,5.90
2022-10-05T01:00:08.094Z,6.53
2022-10-05T01:03:16.307Z,5.88
2022-10-05T01:07:02.482Z,6.38
2022-10-05T01:10:16.095Z,5.83
2022-10-05T01:13:24.481Z,5.80
2022-10-05T01:16:36.235Z,6.32
2022-10-05T01:19:44.582Z,5.60
2022-10-05T01:23:18.121Z,6.60
2022-10-05T01:26:23.623Z,6.80
2022-10-05T01:29:51.055Z,6.57
2022-10-05T01:33:09.530Z,6.57
2022-10-05T01:36:12.298Z,6.53
2022-10-05T01:39:41.277Z,7.80
2022-10-05T01:42:59.388Z,8.20
2022-10-05T01:46:43.286Z,6.57
2022-10-05T01:50:07.250Z,7.38
2022-10-05T01:53:29.343Z,7.30
2022-10-05T01:56:39.091Z,7.53
2022-10-05T02:00:09.131Z,12.20
2022-10-05T02:03:33.483Z,9.18
2022-10-05T02:06:42.661Z,10.43
2022-10-05T02:10:09.131Z,8.73
2022-10-05T02:13:15.316Z,7.00
2022-10-05T02:16:29.659Z,6.00
2022-10-05T02:19:39.858Z,6.07
2022-10-05T02:22:53.441Z,4.60
2022-10-05T02:25:56.733Z,4.50
2022-10-05T02:29:05.715Z,4.55
2022-10-05T02:32:14.387Z,4.40
2022-10-05T02:35:19.225Z,4.50
2022-10-05T02:38:39.257Z,4.45
2022-10-05T02:42:04.044Z,4.45
2022-10-05T02:45:51.942Z,4.72
2022-10-05T02:49:03.751Z,5.17
2022-10-05T02:52:26.994Z,5.78
2022-10-05T02:55:49.607Z,6.03
2022-10-05T02:59:11.370Z,5.85
2022-10-05T03:02:26.775Z,6.43
2022-10-05T03:05:32.583Z,6.30
2022-10-05T03:08:54.588Z,5.68
2022-10-05T03:12:41.625Z,6.68
2022-10-05T03:16:00.067Z,6.10
2022-10-05T03:19:25.055Z,6.55
2022-10-05T03:22:42.782Z,6.07
2022-10-05T03:26:27.891Z,6.18
2022-10-05T03:29:42.847Z,6.45
2022-10-05T03:33:21.045Z,6.72
2022-10-05T03:36:39.272Z,6.13
2022-10-05T03:39:51.838Z,5.60
2022-10-05T03:43:01.090Z,6.78
2022-10-05T03:46:17.015Z,6.70
2022-10-05T03:49:28.024Z,6.18
2022-10-05T03:52:39.915Z,7.22
2022-10-05T03:55:49.829Z,6.73
2022-10-05T03:58:56.241Z,7.65
2022-10-05T04:02:06.914Z,6.88
2022-10-05T04:05:10.074Z,12.88
2022-10-05T04:08:37.822Z,14.82
2022-10-05T04:12:11.467Z,13.37
2022-10-05T04:15:36.450Z,10.52
2022-10-05T04:18:51.299Z,13.50
2022-10-05T04:22:03.695Z,12.02
2022-10-05T04:25:17.762Z,11.70
2022-10-05T04:28:46.451Z,10.60
2022-10-05T04:31:58.510Z,12.18
2022-10-05T04:35:26.151Z,12.70
2022-10-05T04:38:43.781Z,68.90
2022-10-05T04:42:06.493Z,50.20
2022-10-05T04:45:31.472Z,17.67
2022-10-05T04:48:46.602Z,14.20
2022-10-05T04:52:06.149Z,10.38
2022-10-05T04:55:22.589Z,9.27
2022-10-05T04:58:44.119Z,9.35
2022-10-05T05:02:03.471Z,8.93
2022-10-05T05:05:21.987Z,9.05
2022-10-05T05:09:09.424Z,9.10
2022-10-05T05:12:49.407Z,9.13
2022-10-05T05:16:07.827Z,11.05
2022-10-05T05:19:35.263Z,12.20
2022-10-05T05:22:47.497Z,19.60
2022-10-05T05:26:22.154Z,19.50
2022-10-05T05:29:50.327Z,14.60
2022-10-05T05:33:19.538Z,12.93
2022-10-05T05:36:36.354Z,11.33
2022-10-05T05:40:14.060Z,12.73
2022-10-05T05:43:45.017Z,11.93
2022-10-05T05:47:04.083Z,10.82
2022-10-05T05:50:24.451Z,9.10
2022-10-05T05:53:54.712Z,8.60
2022-10-05T05:57:21.900Z,8.27
2022-10-05T06:00:31.600Z,7.68
2022-10-05T06:03:44.994Z,6.50
2022-10-05T06:06:52.511Z,6.20
2022-10-05T06:10:00.355Z,6.57
2022-10-05T06:13:19.695Z,6.85
2022-10-05T06:16:58.527Z,6.60
2022-10-05T06:20:05.836Z,6.55
2022-10-05T06:23:25.848Z,7.68
2022-10-05T06:27:03.686Z,8.37
2022-10-05T06:30:07.709Z,7.25
2022-10-05T06:33:29.648Z,7.10
2022-10-05T06:37:09.115Z,7.35
2022-10-05T06:40:34.000Z,7.80
2022-10-05T06:43:57.287Z,9.33
2022-10-05T06:47:22.019Z,7.85
2022-10-05T06:50:54.991Z,6.93
2022-10-05T06:54:45.234Z,6.72
2022-10-05T06:58:11.155Z,7.13
2022-10-05T07:01:37.390Z,9.40
2022-10-05T07:05:03.689Z,8.57
2022-10-05T07:08:25.310Z,7.35
2022-10-05T07:11:34.507Z,7.18
2022-10-05T07:14:52.965Z,6.50
2022-10-05T07:18:21.862Z,6.30
2022-10-05T07:21:49.637Z,5.70
2022-10-05T07:25:15.577Z,5.32
2022-10-05T07:28:33.383Z,4.57
2022-10-05T07:31:48.686Z,4.60
2022-10-05T07:35:30.707Z,4.57
2022-10-05T07:38:44.945Z,5.50
2022-10-05T07:42:04.544Z,5.18
2022-10-05T07:45:28.290Z,5.40
2022-10-05T07:48:50.534Z,6.50
2022-10-05T07:51:58.556Z,5.50
2022-10-05T07:55:25.689Z,4.70
2022-10-05T07:58:41.565Z,5.32
2022-10-05T08:01:54.879Z,4.95
2022-10-05T08:05:04.279Z,4.55
2022-10-05T08:08:19.834Z,3.93
2022-10-05T08:12:04.405Z,3.97
2022-10-05T08:15:38.502Z,4.43
2022-10-05T08:19:06.983Z,4.40
2022-10-05T08:22:19.560Z,4.05
2022-10-05T08:25:36.986Z,4.50
2022-10-05T08:28:44.026Z,3.80
2022-10-05T08:31:50.615Z,3.90
2022-10-05T08:34:56.502Z,4.15
2022-10-05T08:38:03.963Z,4.00
2022-10-05T08:41:26.573Z,4.00
2022-10-05T08:44:50.717Z,3.75
2022-10-05T08:48:11.650Z,3.80
2022-10-05T08:51:37.098Z,3.90
2022-10-05T08:55:02.539Z,3.90
2022-10-05T08:58:24.497Z,3.73
2022-10-05T09:01:27.564Z,3.40
2022-10-05T09:04:49.948Z,3.30
2022-10-05T09:08:02.370Z,2.97
2022-10-05T09:11:12.302Z,3.15
2022-10-05T09:14:33.568Z,3.07
2022-10-05T09:17:55.092Z,3.28
2022-10-05T09:21:15.089Z,3.90
2022-10-05T09:24:53.067Z,3.88
2022-10-05T09:27:59.123Z,3.92
2022-10-05T09:31:13.692Z,3.73
2022-10-05T09:34:28.698Z,3.97
2022-10-05T09:38:02.438Z,3.83
2022-10-05T09:41:29.653Z,3.50
2022-10-05T09:44:53.044Z,3.75
2022-10-05T09:48:07.543Z,3.93
2022-10-05T09:51:23.096Z,3.40
2022-10-05T09:54:53.056Z,3.33
2022-10-05T09:58:04.555Z,3.38
2022-10-05T10:01:33.295Z,3.30
2022-10-05T10:04:50.666Z,3.03
2022-10-05T10:08:27.338Z,2.10
2022-10-05T10:11:40.128Z,2.60
2022-10-05T10:15:07.155Z,2.58
2022-10-05T10:19:06.053Z,2.75
2022-10-05T10:22:42.968Z,2.47
2022-10-05T10:25:49.264Z,2.33
2022-10-05T10:29:16.993Z,2.30
2022-10-05T10:32:38.709Z,2.50
2022-10-05T10:35:49.321Z,4.25
2022-10-05T10:38:52.265Z,3.17
2022-10-05T10:42:12.310Z,2.97
2022-10-05T10:45:32.373Z,3.70
2022-10-05T10:48:54.744Z,4.80
2022-10-05T10:52:06.821Z,2.40
2022-10-05T10:55:55.909Z,2.30
2022-10-05T10:59:26.609Z,2.35
2022-10-05T11:02:50.793Z,2.70
2022-10-05T11:06:12.846Z,2.38
2022-10-05T11:09:32.078Z,2.45
2022-10-05T11:12:59.604Z,2.43
2022-10-05T11:16:28.156Z,2.88
2022-10-05T11:20:05.376Z,3.42
2022-10-05T11:23:45.368Z,2.90
2022-10-05T11:26:51.772Z,3.10
2022-10-05T11:30:34.795Z,2.40
2022-10-05T11:34:21.054Z,3.03
2022-10-05T11:37:53.854Z,2.50
2022-10-05T11:41:19.583Z,3.20
2022-10-05T11:44:31.316Z,2.65
2022-10-05T11:48:02.812Z,2.93
2022-10-05T11:51:14.718Z,2.83
2022-10-05T11:58:22.262Z,3.17
2022-10-05T12:01:48.473Z,2.20
2022-10-05T12:05:06.708Z,2.80
2022-10-05T12:08:28.134Z,2.92
2022-10-05T12:11:47.239Z,3.20
2022-10-05T12:14:59.387Z,3.00
2022-10-05T12:18:14.203Z,3.00
2022-10-05T12:21:34.966Z,2.67
2022-10-05T12:24:37.658Z,2.13
2022-10-05T12:27:46.325Z,2.22
2022-10-05T12:30:49.087Z,2.13
2022-10-05T12:34:05.618Z,2.03
2022-10-05T12:37:11.022Z,2.50
2022-10-05T12:40:25.785Z,2.25
2022-10-05T12:43:40.552Z,2.08
2022-10-05T12:46:46.408Z,1.92
2022-10-05T12:50:02.401Z,2.67
2022-10-05T12:53:43.751Z,1.80
2022-10-05T12:56:52.163Z,2.17
2022-10-05T13:00:22.469Z,2.13
2022-10-05T13:03:34.689Z,2.20
2022-10-05T13:07:04.699Z,2.38
2022-10-05T13:10:35.513Z,1.87
2022-10-05T13:14:16.592Z,2.00
2022-10-05T13:17:39.837Z,2.50
2022-10-05T13:20:57.010Z,2.35
2022-10-05T13:24:03.301Z,3.47
2022-10-05T13:27:22.241Z,2.47
2022-10-05T13:30:26.976Z,2.10
2022-10-05T13:34:00.141Z,2.30
2022-10-05T13:37:20.191Z,2.10
2022-10-05T13:40:29.653Z,2.13
2022-10-05T13:43:50.726Z,2.10
2022-10-05T13:47:31.706Z,3.13
2022-10-05T13:50:44.584Z,2.80
2022-10-05T13:53:56.134Z,2.80
2022-10-05T13:57:08.070Z,2.53
2022-10-05T14:00:45.024Z,2.10
2022-10-05T14:07:39.330Z,3.50
2022-10-05T14:10:47.686Z,3.63
2022-10-05T14:13:50.889Z,3.40
2022-10-05T14:20:37.417Z,3.03
2022-10-05T14:23:40.210Z,3.00
2022-10-05T14:26:52.659Z,3.25
2022-10-05T14:29:59.840Z,2.92
2022-10-05T14:33:05.366Z,2.50
2022-10-05T14:36:22.418Z,2.55
2022-10-05T14:39:33.199Z,3.20
2022-10-05T14:42:47.126Z,5.53
2022-10-05T14:45:58.192Z,3.45
2022-10-05T14:49:19.438Z,3.10
2022-10-05T14:58:07.528Z,3.65
2022-10-05T15:01:19.374Z,5.68
2022-10-05T15:04:42.451Z,6.40
2022-10-05T15:07:49.382Z,3.20
2022-10-05T15:11:01.221Z,2.88
2022-10-05T15:14:16.291Z,3.30
2022-10-05T15:17:42.865Z,3.05
2022-10-05T15:20:45.696Z,3.17
2022-10-05T15:24:02.853Z,3.37
2022-10-05T15:27:06.478Z,4.80
2022-10-05T15:30:11.721Z,5.85
2022-10-05T15:33:43.466Z,4.53
2022-10-05T15:36:58.200Z,5.45
2022-10-05T15:40:08.607Z,7.83
2022-10-05T15:43:19.053Z,10.38
2022-10-05T15:46:55.442Z,39.22
2022-10-05T15:50:17.767Z,33.10
2022-10-05T15:53:28.689Z,28.88
2022-10-05T15:56:38.841Z,45.60
2022-10-05T16:00:10.406Z,66.05
2022-10-05T16:03:28.650Z,101.60
2022-10-05T16:06:50.050Z,72.38
2022-10-05T16:10:14.049Z,45.08
2022-10-05T16:13:38.145Z,37.50
2022-10-05T16:17:01.955Z,36.50
2022-10-05T16:20:32.588Z,44.15
2022-10-05T16:23:55.476Z,62.03
2022-10-05T16:27:03.716Z,57.75
2022-10-05T16:30:11.998Z,41.17
2022-10-05T16:33:24.028Z,17.52
2022-10-05T16:36:49.909Z,22.15
2022-10-05T16:40:21.704Z,17.38
2022-10-05T16:43:25.711Z,12.02
2022-10-05T16:46:50.242Z,11.63
2022-10-05T16:50:17.009Z,17.30
2022-10-05T16:53:26.202Z,23.38
2022-10-05T16:56:41.313Z,34.20
2022-10-05T17:00:15.675Z,32.92
2022-10-05T17:03:31.733Z,32.83
2022-10-05T17:06:46.704Z,24.98
2022-10-05T17:10:18.874Z,23.73
2022-10-05T17:14:01.493Z,20.35
2022-10-05T17:17:28.953Z,35.40
2022-10-05T17:20:42.760Z,25.10
2022-10-05T17:24:12.646Z,41.30
2022-10-05T17:27:35.600Z,21.95
2022-10-05T17:31:18.794Z,14.70
2022-10-05T17:34:27.460Z,13.65
2022-10-05T17:37:31.991Z,10.10
2022-10-05T17:40:39.257Z,9.38
2022-10-05T17:44:13.816Z,13.50
2022-10-05T17:47:54.242Z,14.10
2022-10-05T17:51:16.666Z,18.98
2022-10-05T17:54:37.685Z,20.97
2022-10-05T17:57:41.978Z,16.25
2022-10-05T18:01:13.391Z,16.58
2022-10-05T18:04:24.949Z,8.73
2022-10-05T18:07:28.603Z,7.95
2022-10-05T18:10:34.028Z,7.93
2022-10-05T18:13:50.188Z,11.18
2022-10-05T18:17:10.427Z,14.35
2022-10-05T18:20:24.015Z,15.02
2022-10-05T18:23:30.331Z,16.27
2022-10-05T18:27:02.312Z,24.47
2022-10-05T18:30:22.344Z,15.48
2022-10-05T18:33:59.716Z,13.90
2022-10-05T18:37:25.707Z,12.05
2022-10-05T18:40:46.747Z,12.02
2022-10-05T18:43:51.124Z,10.47
2022-10-05T18:47:45.664Z,10.88
2022-10-05T18:51:22.912Z,10.75
2022-10-05T18:54:57.615Z,9.45
2022-10-05T18:58:06.503Z,10.57
2022-10-05T19:01:37.190Z,15.63
2022-10-05T19:05:42.969Z,16.60
2022-10-05T19:09:00.673Z,14.45
2022-10-05T19:12:12.226Z,11.23
2022-10-05T19:15:40.638Z,11.13
2022-10-05T19:19:01.547Z,7.27
2022-10-05T19:22:09.417Z,6.38
2022-10-05T19:25:21.465Z,7.47
2022-10-05T19:28:37.321Z,8.18
2022-10-05T19:31:56.628Z,9.23
2022-10-05T19:35:02.286Z,10.03
2022-10-05T19:38:21.895Z,12.52
2022-10-05T19:41:37.152Z,14.75
2022-10-05T19:45:34.470Z,28.60
2022-10-05T19:48:53.239Z,46.22
2022-10-05T19:51:57.833Z,46.37
2022-10-05T19:55:12.824Z,33.22
2022-10-05T19:58:22.029Z,25.02
2022-10-05T20:01:35.544Z,26.58
2022-10-05T20:04:41.258Z,19.60
2022-10-05T20:07:44.060Z,20.50
2022-10-05T20:11:13.755Z,17.15
2022-10-05T20:14:18.549Z,17.33
2022-10-05T20:17:47.399Z,15.10
2022-10-05T20:20:50.304Z,15.20
2022-10-05T20:27:46.795Z,18.67
2022-10-05T20:30:49.436Z,21.05
2022-10-05T20:33:52.538Z,19.85
2022-10-05T20:36:55.302Z,19.38
2022-10-05T20:39:58.092Z,18.47
2022-10-05T20:43:00.818Z,18.63
2022-10-05T20:46:03.846Z,17.90
2022-10-05T20:49:09.720Z,18.38
2022-10-05T20:52:15.454Z,17.88
2022-10-05T20:55:18.147Z,17.63
2022-10-05T20:58:21.142Z,16.70
2022-10-05T21:01:26.836Z,17.38
2022-10-05T21:04:40.030Z,17.23
2022-10-05T21:07:43.738Z,18.17
2022-10-05T21:10:46.869Z,18.67
2022-10-05T21:13:50.069Z,16.92
2022-10-05T21:16:52.792Z,16.63
2022-10-05T21:19:55.552Z,16.35
2022-10-05T21:22:58.218Z,16.17
2022-10-05T21:26:01.819Z,15.00
2022-10-05T21:29:10.216Z,13.02
2022-10-05T21:32:14.935Z,12.63
2022-10-05T21:35:17.659Z,13.30
2022-10-05T21:38:20.425Z,12.57
2022-10-05T21:41:23.648Z,12.63
2022-10-05T21:44:26.328Z,11.60
2022-10-05T21:47:29.163Z,11.50
2022-10-05T21:50:33.084Z,10.73
2022-10-05T21:53:40.072Z,12.70
2022-10-05T21:56:47.289Z,13.13
2022-10-05T21:59:50.303Z,13.13
2022-10-05T22:02:53.034Z,16.52
2022-10-05T22:05:55.883Z,17.63
2022-10-05T22:08:59.803Z,13.93
2022-10-05T22:12:02.539Z,14.30
2022-10-05T22:15:07.453Z,12.80
2022-10-05T22:18:17.383Z,11.43
2022-10-05T22:21:21.324Z,9.07
2022-10-05T22:24:24.077Z,8.65
2022-10-05T22:27:29.674Z,7.90
2022-10-05T22:30:33.195Z,8.80
2022-10-05T22:33:37.326Z,8.60
2022-10-05T22:36:41.866Z,8.95
2022-10-05T22:39:44.597Z,9.00
2022-10-05T22:42:47.402Z,9.13
2022-10-05T22:45:50.361Z,8.63
2022-10-05T22:48:53.230Z,8.32
2022-10-05T22:51:56.141Z,9.55
2022-10-05T22:54:58.907Z,9.10
2022-10-05T22:58:02.045Z,8.17
2022-10-05T23:01:07.585Z,8.52
2022-10-05T23:04:12.204Z,8.88
2022-10-05T23:07:14.987Z,8.52
2022-10-05T23:10:18.712Z,8.48
2022-10-05T23:13:22.591Z,9.47
2022-10-05T23:16:27.714Z,9.60
2022-10-05T23:19:30.467Z,9.52
2022-10-05T23:22:37.439Z,9.77
2022-10-05T23:25:40.186Z,9.68
2022-10-05T23:28:47.226Z,9.43
2022-10-05T23:31:50.423Z,9.90
2022-10-05T23:34:53.201Z,10.20
2022-10-05T23:37:55.867Z,9.63
2022-10-05T23:41:02.598Z,9.40
2022-10-05T23:44:05.280Z,9.07
2022-10-05T23:47:08.029Z,9.75
2022-10-05T23:50:10.746Z,9.73
2022-10-05T23:53:14.299Z,10.02
2022-10-05T23:56:17.040Z,9.52
2022-10-05T23:59:19.710Z,8.73
